Middletown, OH (45044)

5:03 PM EST on December 27, 2014 (GMT -0500)
Bridle Creek | Change Station
CLOSE
Current Station
Personal Weather Station
Location: Monroe, OH
Elevation: 748 ft
Nearby Weather Stations

Elev 748 ft 39.43 °N, 84.36 °W | Updated 0 second ago

Rain
Rain
48.0 °F
Feels Like 47 °F
N
3.5
Wind Variable Wind from SSE
Gusts 9.2 mph

Today
High -- | Low -- °F
--% Chance of Precip.
Yesterday
High -- | Low -- °F
Precip. -- in
7:56 AM 5:20 PM
Waxing Crescent, 40% visible
Pressure 30.12 in
Visibility 2.5 miles
Clouds Overcast 1100 ft
Windchill 47 °F
Dew Point 46 °F
Humidity 93%
Rainfall 0.02 in
Snow Depth Not available.
UV 0.0 out of 12
Pollen .10 out of 12
Air Quality Not available.
Flu Activity Not available.
METAR KHAO 272153Z AUTO 21004KT 2 1/2SM -RA BR OVC011 09/08 A3012 RMK AO2 CIG 008V013 SLP200 P0002 T00890083

More Conditions Fewer Conditions

Pressure 30.12 in
Visibility 2.5 miles
Clouds Overcast 1100 ft
Windchill 47 °F
Dew Point 46 °F
Humidity 93%
Rainfall 0.02 in
Snow Depth Not available.
UV 0.0 out of 12
Pollen .10 out of 12
Air Quality Not available.
Flu Activity Not available.
METAR KHAO 272153Z AUTO 21004KT 2 1/2SM -RA BR OVC011 09/08 A3012 RMK AO2 CIG 008V013 SLP200 P0002 T00890083

More Conditions Fewer Conditions

10-Day Weather Forecast

Almanac

Astronomy

Dec. 27, 2014 Rise Set
Actual Time
Civil Twilight
Nautical Twilight
Astronomical Twilight
Moon
Length of Visible Light
Length of Day
Tomorrow will be .
, % of the Moon is Illuminated

Today's Extremes

State Highs State Lows

Community

WunderPhotos

Upload Photos

1,781,088 photos uploaded!

WunderBlogs® & News

Nearby

Air Quality

  Air Quality AQ Index Pollutant
Not available.

Snow Depth

Station Depth Elevation

Earthquake Activity

City Distance Mag. Time & Date
Minimum magnitude displayed is 2.5.

Coastal Water Temperatures

Place Temperature

Nearby Weather Stations